sensor_id;sensor_type;location;lat;lon;timestamp;P1;durP1;ratioP1;P2;durP2;ratioP2
4939;SDS011;2485;49.326;7.214;2024-01-07T00:01:38;5.27;;;3.53;;
4939;SDS011;2485;49.326;7.214;2024-01-07T00:04:04;3.90;;;2.80;;
4939;SDS011;2485;49.326;7.214;2024-01-07T00:06:32;4.13;;;2.80;;
4939;SDS011;2485;49.326;7.214;2024-01-07T00:08:58;3.00;;;2.70;;
4939;SDS011;2485;49.326;7.214;2024-01-07T00:11:25;3.30;;;3.00;;
4939;SDS011;2485;49.326;7.214;2024-01-07T00:13:51;3.43;;;2.90;;
4939;SDS011;2485;49.326;7.214;2024-01-07T00:16:18;3.60;;;2.27;;
4939;SDS011;2485;49.326;7.214;2024-01-07T00:18:44;2.90;;;2.50;;
4939;SDS011;2485;49.326;7.214;2024-01-07T00:21:11;2.90;;;2.50;;
4939;SDS011;2485;49.326;7.214;2024-01-07T00:23:38;4.13;;;3.07;;
4939;SDS011;2485;49.326;7.214;2024-01-07T00:26:05;3.50;;;2.47;;
4939;SDS011;2485;49.326;7.214;2024-01-07T00:28:32;3.40;;;2.60;;
4939;SDS011;2485;49.326;7.214;2024-01-07T00:30:58;3.07;;;2.50;;
4939;SDS011;2485;49.326;7.214;2024-01-07T00:33:25;2.87;;;2.23;;
4939;SDS011;2485;49.326;7.214;2024-01-07T00:35:51;2.20;;;2.00;;
4939;SDS011;2485;49.326;7.214;2024-01-07T00:38:18;4.50;;;2.63;;
4939;SDS011;2485;49.326;7.214;2024-01-07T00:40:45;3.90;;;2.90;;
4939;SDS011;2485;49.326;7.214;2024-01-07T00:43:12;4.10;;;2.83;;
4939;SDS011;2485;49.326;7.214;2024-01-07T00:45:38;4.90;;;2.90;;
4939;SDS011;2485;49.326;7.214;2024-01-07T00:48:05;3.20;;;2.90;;
4939;SDS011;2485;49.326;7.214;2024-01-07T00:50:32;3.30;;;2.77;;
4939;SDS011;2485;49.326;7.214;2024-01-07T00:52:58;4.57;;;2.90;;
4939;SDS011;2485;49.326;7.214;2024-01-07T00:55:25;4.73;;;3.43;;
4939;SDS011;2485;49.326;7.214;2024-01-07T00:57:53;4.30;;;3.20;;
4939;SDS011;2485;49.326;7.214;2024-01-07T01:00:20;4.43;;;3.17;;
4939;SDS011;2485;49.326;7.214;2024-01-07T01:02:47;4.40;;;3.27;;
4939;SDS011;2485;49.326;7.214;2024-01-07T01:05:13;4.53;;;3.03;;
4939;SDS011;2485;49.326;7.214;2024-01-07T01:07:40;3.30;;;2.60;;
4939;SDS011;2485;49.326;7.214;2024-01-07T01:10:07;4.10;;;2.93;;
4939;SDS011;2485;49.326;7.214;2024-01-07T01:12:33;5.43;;;3.57;;
4939;SDS011;2485;49.326;7.214;2024-01-07T01:15:01;3.93;;;3.10;;
4939;SDS011;2485;49.326;7.214;2024-01-07T01:17:28;4.40;;;3.60;;
4939;SDS011;2485;49.326;7.214;2024-01-07T01:19:54;4.00;;;2.97;;
4939;SDS011;2485;49.326;7.214;2024-01-07T01:22:21;6.23;;;3.60;;
4939;SDS011;2485;49.326;7.214;2024-01-07T01:24:47;5.57;;;3.50;;
4939;SDS011;2485;49.326;7.214;2024-01-07T01:27:14;4.33;;;3.00;;
4939;SDS011;2485;49.326;7.214;2024-01-07T01:29:40;4.67;;;3.53;;
4939;SDS011;2485;49.326;7.214;2024-01-07T01:32:08;4.60;;;3.20;;
4939;SDS011;2485;49.326;7.214;2024-01-07T01:34:35;4.80;;;3.10;;
4939;SDS011;2485;49.326;7.214;2024-01-07T01:37:01;4.40;;;3.13;;
4939;SDS011;2485;49.326;7.214;2024-01-07T01:39:28;4.20;;;3.13;;
4939;SDS011;2485;49.326;7.214;2024-01-07T01:41:54;3.40;;;3.00;;
4939;SDS011;2485;49.326;7.214;2024-01-07T01:44:21;5.50;;;3.47;;
4939;SDS011;2485;49.326;7.214;2024-01-07T01:46:48;5.60;;;3.63;;
4939;SDS011;2485;49.326;7.214;2024-01-07T01:49:16;4.47;;;3.40;;
4939;SDS011;2485;49.326;7.214;2024-01-07T01:51:42;6.10;;;3.53;;
4939;SDS011;2485;49.326;7.214;2024-01-07T01:54:09;3.33;;;2.90;;
4939;SDS011;2485;49.326;7.214;2024-01-07T01:56:36;5.20;;;3.50;;
4939;SDS011;2485;49.326;7.214;2024-01-07T01:59:02;4.30;;;3.20;;
4939;SDS011;2485;49.326;7.214;2024-01-07T02:01:29;5.70;;;4.00;;
4939;SDS011;2485;49.326;7.214;2024-01-07T02:03:56;4.17;;;3.27;;
4939;SDS011;2485;49.326;7.214;2024-01-07T02:06:24;4.70;;;3.60;;
4939;SDS011;2485;49.326;7.214;2024-01-07T02:08:51;4.67;;;3.27;;
4939;SDS011;2485;49.326;7.214;2024-01-07T02:11:18;4.60;;;3.90;;
4939;SDS011;2485;49.326;7.214;2024-01-07T02:13:44;4.87;;;3.53;;
4939;SDS011;2485;49.326;7.214;2024-01-07T02:16:11;4.50;;;3.43;;
4939;SDS011;2485;49.326;7.214;2024-01-07T02:18:38;6.17;;;3.67;;
4939;SDS011;2485;49.326;7.214;2024-01-07T02:21:06;5.60;;;3.60;;
4939;SDS011;2485;49.326;7.214;2024-01-07T02:23:34;4.57;;;3.57;;
4939;SDS011;2485;49.326;7.214;2024-01-07T02:26:02;5.90;;;3.73;;
4939;SDS011;2485;49.326;7.214;2024-01-07T02:28:29;6.97;;;3.73;;
4939;SDS011;2485;49.326;7.214;2024-01-07T02:30:55;3.87;;;3.10;;
4939;SDS011;2485;49.326;7.214;2024-01-07T02:33:22;6.13;;;3.80;;
4939;SDS011;2485;49.326;7.214;2024-01-07T02:35:48;4.63;;;3.73;;
4939;SDS011;2485;49.326;7.214;2024-01-07T02:38:14;4.60;;;3.20;;
4939;SDS011;2485;49.326;7.214;2024-01-07T02:40:41;5.60;;;3.80;;
4939;SDS011;2485;49.326;7.214;2024-01-07T02:43:09;6.53;;;4.10;;
4939;SDS011;2485;49.326;7.214;2024-01-07T02:45:36;5.97;;;4.07;;
4939;SDS011;2485;49.326;7.214;2024-01-07T02:48:02;5.23;;;3.77;;
4939;SDS011;2485;49.326;7.214;2024-01-07T02:50:29;8.53;;;4.63;;
4939;SDS011;2485;49.326;7.214;2024-01-07T02:52:55;5.80;;;4.20;;
4939;SDS011;2485;49.326;7.214;2024-01-07T02:55:22;6.47;;;4.20;;
4939;SDS011;2485;49.326;7.214;2024-01-07T02:57:48;6.70;;;4.23;;
4939;SDS011;2485;49.326;7.214;2024-01-07T03:00:17;6.93;;;5.20;;
4939;SDS011;2485;49.326;7.214;2024-01-07T03:02:43;5.87;;;4.30;;
4939;SDS011;2485;49.326;7.214;2024-01-07T03:05:10;7.70;;;4.97;;
4939;SDS011;2485;49.326;7.214;2024-01-07T03:07:37;7.03;;;4.83;;
4939;SDS011;2485;49.326;7.214;2024-01-07T03:10:04;8.10;;;5.17;;
4939;SDS011;2485;49.326;7.214;2024-01-07T03:12:30;8.40;;;5.20;;
4939;SDS011;2485;49.326;7.214;2024-01-07T03:14:57;8.17;;;5.77;;
4939;SDS011;2485;49.326;7.214;2024-01-07T03:17:25;9.47;;;5.90;;
4939;SDS011;2485;49.326;7.214;2024-01-07T03:19:51;10.23;;;6.03;;
4939;SDS011;2485;49.326;7.214;2024-01-07T03:22:18;7.13;;;5.30;;
4939;SDS011;2485;49.326;7.214;2024-01-07T03:24:44;11.50;;;5.90;;
4939;SDS011;2485;49.326;7.214;2024-01-07T03:27:11;7.60;;;5.40;;
4939;SDS011;2485;49.326;7.214;2024-01-07T03:29:37;9.50;;;6.00;;
4939;SDS011;2485;49.326;7.214;2024-01-07T03:32:04;8.87;;;5.27;;
4939;SDS011;2485;49.326;7.214;2024-01-07T03:34:32;8.33;;;5.30;;
4939;SDS011;2485;49.326;7.214;2024-01-07T03:36:58;10.23;;;6.30;;
4939;SDS011;2485;49.326;7.214;2024-01-07T03:39:25;12.70;;;7.47;;
4939;SDS011;2485;49.326;7.214;2024-01-07T03:41:54;11.00;;;6.10;;
4939;SDS011;2485;49.326;7.214;2024-01-07T03:44:20;10.47;;;6.37;;
4939;SDS011;2485;49.326;7.214;2024-01-07T03:46:47;11.60;;;7.27;;
4939;SDS011;2485;49.326;7.214;2024-01-07T03:49:14;12.00;;;7.40;;
4939;SDS011;2485;49.326;7.214;2024-01-07T03:51:42;11.93;;;6.87;;
4939;SDS011;2485;49.326;7.214;2024-01-07T03:54:08;11.93;;;6.43;;
4939;SDS011;2485;49.326;7.214;2024-01-07T03:56:34;10.87;;;6.43;;
4939;SDS011;2485;49.326;7.214;2024-01-07T03:59:01;11.57;;;7.23;;
4939;SDS011;2485;49.326;7.214;2024-01-07T04:01:27;9.57;;;6.20;;
4939;SDS011;2485;49.326;7.214;2024-01-07T04:03:54;8.30;;;4.80;;
4939;SDS011;2485;49.326;7.214;2024-01-07T04:06:20;13.30;;;6.70;;
4939;SDS011;2485;49.326;7.214;2024-01-07T04:08:48;11.73;;;6.70;;
4939;SDS011;2485;49.326;7.214;2024-01-07T04:11:15;11.93;;;6.73;;
4939;SDS011;2485;49.326;7.214;2024-01-07T04:13:41;11.23;;;6.50;;
4939;SDS011;2485;49.326;7.214;2024-01-07T04:16:15;10.33;;;6.27;;
4939;SDS011;2485;49.326;7.214;2024-01-07T04:18:41;13.73;;;7.23;;
4939;SDS011;2485;49.326;7.214;2024-01-07T04:21:08;11.97;;;6.10;;
4939;SDS011;2485;49.326;7.214;2024-01-07T04:23:35;12.07;;;6.83;;
4939;SDS011;2485;49.326;7.214;2024-01-07T04:26:03;11.90;;;7.03;;
4939;SDS011;2485;49.326;7.214;2024-01-07T04:28:29;12.40;;;6.80;;
4939;SDS011;2485;49.326;7.214;2024-01-07T04:30:56;14.77;;;6.80;;
4939;SDS011;2485;49.326;7.214;2024-01-07T04:33:22;10.13;;;6.20;;
4939;SDS011;2485;49.326;7.214;2024-01-07T04:35:49;12.60;;;7.33;;
4939;SDS011;2485;49.326;7.214;2024-01-07T04:38:15;12.70;;;7.27;;
4939;SDS011;2485;49.326;7.214;2024-01-07T04:40:42;13.30;;;7.67;;
4939;SDS011;2485;49.326;7.214;2024-01-07T04:43:10;12.37;;;7.43;;
4939;SDS011;2485;49.326;7.214;2024-01-07T04:45:36;12.60;;;6.77;;
4939;SDS011;2485;49.326;7.214;2024-01-07T04:48:03;14.50;;;8.17;;
4939;SDS011;2485;49.326;7.214;2024-01-07T04:50:29;12.77;;;7.80;;
4939;SDS011;2485;49.326;7.214;2024-01-07T04:52:56;12.93;;;6.90;;
4939;SDS011;2485;49.326;7.214;2024-01-07T04:55:22;11.00;;;6.60;;
4939;SDS011;2485;49.326;7.214;2024-01-07T04:57:49;12.90;;;6.77;;
4939;SDS011;2485;49.326;7.214;2024-01-07T05:00:17;12.57;;;6.90;;
4939;SDS011;2485;49.326;7.214;2024-01-07T05:02:43;13.70;;;7.10;;
4939;SDS011;2485;49.326;7.214;2024-01-07T05:05:10;11.97;;;6.90;;
4939;SDS011;2485;49.326;7.214;2024-01-07T05:07:37;10.90;;;6.27;;
4939;SDS011;2485;49.326;7.214;2024-01-07T05:10:04;13.10;;;7.40;;
4939;SDS011;2485;49.326;7.214;2024-01-07T05:12:30;11.23;;;6.53;;
4939;SDS011;2485;49.326;7.214;2024-01-07T05:14:57;11.80;;;6.90;;
4939;SDS011;2485;49.326;7.214;2024-01-07T05:17:25;14.47;;;6.70;;
4939;SDS011;2485;49.326;7.214;2024-01-07T05:19:51;8.90;;;5.63;;
4939;SDS011;2485;49.326;7.214;2024-01-07T05:22:18;13.90;;;7.50;;
4939;SDS011;2485;49.326;7.214;2024-01-07T05:24:44;9.30;;;5.90;;
4939;SDS011;2485;49.326;7.214;2024-01-07T05:27:11;10.03;;;5.40;;
4939;SDS011;2485;49.326;7.214;2024-01-07T05:29:37;8.80;;;5.77;;
4939;SDS011;2485;49.326;7.214;2024-01-07T05:32:04;10.07;;;6.10;;
4939;SDS011;2485;49.326;7.214;2024-01-07T05:34:32;11.97;;;7.07;;
4939;SDS011;2485;49.326;7.214;2024-01-07T05:36:59;10.83;;;6.20;;
4939;SDS011;2485;49.326;7.214;2024-01-07T05:39:25;11.80;;;6.00;;
4939;SDS011;2485;49.326;7.214;2024-01-07T05:41:52;10.50;;;4.53;;
4939;SDS011;2485;49.326;7.214;2024-01-07T05:44:18;12.40;;;6.23;;
4939;SDS011;2485;49.326;7.214;2024-01-07T05:46:45;10.17;;;6.27;;
4939;SDS011;2485;49.326;7.214;2024-01-07T05:49:11;8.27;;;5.53;;
4939;SDS011;2485;49.326;7.214;2024-01-07T05:51:40;10.30;;;6.03;;
4939;SDS011;2485;49.326;7.214;2024-01-07T05:54:06;9.37;;;5.50;;
4939;SDS011;2485;49.326;7.214;2024-01-07T05:56:33;9.57;;;5.73;;
4939;SDS011;2485;49.326;7.214;2024-01-07T05:59:04;9.93;;;5.80;;
4939;SDS011;2485;49.326;7.214;2024-01-07T06:01:30;8.60;;;5.00;;
4939;SDS011;2485;49.326;7.214;2024-01-07T06:03:57;12.23;;;6.03;;
4939;SDS011;2485;49.326;7.214;2024-01-07T06:06:23;10.27;;;5.30;;
4939;SDS011;2485;49.326;7.214;2024-01-07T06:08:51;9.43;;;5.00;;
4939;SDS011;2485;49.326;7.214;2024-01-07T06:11:17;11.47;;;5.63;;
4939;SDS011;2485;49.326;7.214;2024-01-07T06:13:45;9.13;;;5.07;;
4939;SDS011;2485;49.326;7.214;2024-01-07T06:16:12;9.70;;;5.50;;
4939;SDS011;2485;49.326;7.214;2024-01-07T06:18:38;12.37;;;5.50;;
4939;SDS011;2485;49.326;7.214;2024-01-07T06:21:05;9.30;;;5.37;;
4939;SDS011;2485;49.326;7.214;2024-01-07T06:23:32;11.83;;;5.00;;
4939;SDS011;2485;49.326;7.214;2024-01-07T06:26:00;9.67;;;5.77;;
4939;SDS011;2485;49.326;7.214;2024-01-07T06:28:26;8.83;;;5.67;;
4939;SDS011;2485;49.326;7.214;2024-01-07T06:30:52;9.10;;;5.00;;
4939;SDS011;2485;49.326;7.214;2024-01-07T06:33:19;9.80;;;5.50;;
4939;SDS011;2485;49.326;7.214;2024-01-07T06:35:46;8.50;;;5.13;;
4939;SDS011;2485;49.326;7.214;2024-01-07T06:38:12;9.57;;;5.47;;
4939;SDS011;2485;49.326;7.214;2024-01-07T06:40:40;9.60;;;5.50;;
4939;SDS011;2485;49.326;7.214;2024-01-07T06:43:08;7.93;;;4.67;;
4939;SDS011;2485;49.326;7.214;2024-01-07T06:45:34;9.43;;;5.40;;
4939;SDS011;2485;49.326;7.214;2024-01-07T06:48:00;9.50;;;5.80;;
4939;SDS011;2485;49.326;7.214;2024-01-07T06:50:27;8.90;;;5.60;;
4939;SDS011;2485;49.326;7.214;2024-01-07T06:52:53;7.57;;;5.10;;
4939;SDS011;2485;49.326;7.214;2024-01-07T06:55:20;11.73;;;5.80;;
4939;SDS011;2485;49.326;7.214;2024-01-07T06:57:46;11.07;;;5.97;;
4939;SDS011;2485;49.326;7.214;2024-01-07T07:00:15;9.30;;;5.57;;
4939;SDS011;2485;49.326;7.214;2024-01-07T07:02:42;12.17;;;5.57;;
4939;SDS011;2485;49.326;7.214;2024-01-07T07:05:09;8.80;;;5.37;;
4939;SDS011;2485;49.326;7.214;2024-01-07T07:07:35;10.37;;;4.80;;
4939;SDS011;2485;49.326;7.214;2024-01-07T07:10:02;11.10;;;5.10;;
4939;SDS011;2485;49.326;7.214;2024-01-07T07:12:28;10.47;;;5.83;;
4939;SDS011;2485;49.326;7.214;2024-01-07T07:14:55;7.87;;;4.50;;
4939;SDS011;2485;49.326;7.214;2024-01-07T07:17:23;10.30;;;5.00;;
4939;SDS011;2485;49.326;7.214;2024-01-07T07:19:50;8.93;;;5.10;;
4939;SDS011;2485;49.326;7.214;2024-01-07T07:22:16;9.73;;;5.20;;
4939;SDS011;2485;49.326;7.214;2024-01-07T07:24:43;7.70;;;4.77;;
4939;SDS011;2485;49.326;7.214;2024-01-07T07:27:09;8.03;;;5.27;;
4939;SDS011;2485;49.326;7.214;2024-01-07T07:29:36;7.70;;;4.80;;
4939;SDS011;2485;49.326;7.214;2024-01-07T07:32:02;9.57;;;5.27;;
4939;SDS011;2485;49.326;7.214;2024-01-07T07:34:30;8.40;;;4.70;;
4939;SDS011;2485;49.326;7.214;2024-01-07T07:36:57;8.90;;;5.00;;
4939;SDS011;2485;49.326;7.214;2024-01-07T07:39:24;9.60;;;5.20;;
4939;SDS011;2485;49.326;7.214;2024-01-07T07:41:51;7.93;;;4.23;;
4939;SDS011;2485;49.326;7.214;2024-01-07T07:44:17;6.73;;;4.20;;
4939;SDS011;2485;49.326;7.214;2024-01-07T07:46:44;8.63;;;4.83;;
4939;SDS011;2485;49.326;7.214;2024-01-07T07:49:10;6.73;;;4.00;;
4939;SDS011;2485;49.326;7.214;2024-01-07T07:51:38;8.90;;;4.63;;
4939;SDS011;2485;49.326;7.214;2024-01-07T07:54:05;7.43;;;4.60;;
4939;SDS011;2485;49.326;7.214;2024-01-07T07:56:31;7.90;;;4.73;;
4939;SDS011;2485;49.326;7.214;2024-01-07T07:58:58;6.60;;;4.07;;
4939;SDS011;2485;49.326;7.214;2024-01-07T08:01:24;8.40;;;4.37;;
4939;SDS011;2485;49.326;7.214;2024-01-07T08:03:51;6.97;;;4.30;;
4939;SDS011;2485;49.326;7.214;2024-01-07T08:06:17;5.53;;;3.60;;
4939;SDS011;2485;49.326;7.214;2024-01-07T08:08:46;8.73;;;5.63;;
4939;SDS011;2485;49.326;7.214;2024-01-07T08:11:12;7.50;;;4.50;;
4939;SDS011;2485;49.326;7.214;2024-01-07T08:13:38;8.00;;;4.60;;
4939;SDS011;2485;49.326;7.214;2024-01-07T08:16:05;7.33;;;4.67;;
4939;SDS011;2485;49.326;7.214;2024-01-07T08:18:32;9.83;;;4.60;;
4939;SDS011;2485;49.326;7.214;2024-01-07T08:20:58;7.37;;;2.63;;
4939;SDS011;2485;49.326;7.214;2024-01-07T08:23:25;7.93;;;4.07;;
4939;SDS011;2485;49.326;7.214;2024-01-07T08:25:53;7.30;;;4.40;;
4939;SDS011;2485;49.326;7.214;2024-01-07T08:28:20;8.07;;;4.80;;
4939;SDS011;2485;49.326;7.214;2024-01-07T08:30:46;8.77;;;4.70;;
4939;SDS011;2485;49.326;7.214;2024-01-07T08:33:14;6.13;;;4.20;;
4939;SDS011;2485;49.326;7.214;2024-01-07T08:35:40;8.30;;;4.97;;
4939;SDS011;2485;49.326;7.214;2024-01-07T08:38:07;7.87;;;4.90;;
4939;SDS011;2485;49.326;7.214;2024-01-07T08:40:33;9.70;;;4.20;;
4939;SDS011;2485;49.326;7.214;2024-01-07T08:43:01;8.40;;;4.43;;
4939;SDS011;2485;49.326;7.214;2024-01-07T08:45:28;5.97;;;4.00;;
4939;SDS011;2485;49.326;7.214;2024-01-07T08:47:54;8.37;;;4.90;;
4939;SDS011;2485;49.326;7.214;2024-01-07T08:50:21;6.00;;;3.93;;
4939;SDS011;2485;49.326;7.214;2024-01-07T08:52:47;9.40;;;4.53;;
4939;SDS011;2485;49.326;7.214;2024-01-07T08:55:14;7.57;;;4.23;;
4939;SDS011;2485;49.326;7.214;2024-01-07T08:57:40;4.93;;;3.80;;
4939;SDS011;2485;49.326;7.214;2024-01-07T09:00:09;7.67;;;4.63;;
4939;SDS011;2485;49.326;7.214;2024-01-07T09:02:35;6.70;;;4.10;;
4939;SDS011;2485;49.326;7.214;2024-01-07T09:05:02;5.70;;;3.70;;
4939;SDS011;2485;49.326;7.214;2024-01-07T09:07:29;4.17;;;2.90;;
4939;SDS011;2485;49.326;7.214;2024-01-07T09:09:55;6.33;;;3.97;;
4939;SDS011;2485;49.326;7.214;2024-01-07T09:12:24;6.60;;;3.70;;
4939;SDS011;2485;49.326;7.214;2024-01-07T09:14:51;5.63;;;3.53;;
4939;SDS011;2485;49.326;7.214;2024-01-07T09:17:18;4.10;;;3.03;;
4939;SDS011;2485;49.326;7.214;2024-01-07T09:19:45;6.70;;;4.10;;
4939;SDS011;2485;49.326;7.214;2024-01-07T09:22:12;7.30;;;4.27;;
4939;SDS011;2485;49.326;7.214;2024-01-07T09:24:38;6.57;;;4.27;;
4939;SDS011;2485;49.326;7.214;2024-01-07T09:27:05;5.60;;;3.87;;
4939;SDS011;2485;49.326;7.214;2024-01-07T09:29:31;4.87;;;3.30;;
4939;SDS011;2485;49.326;7.214;2024-01-07T09:31:58;2.80;;;2.50;;
4939;SDS011;2485;49.326;7.214;2024-01-07T09:34:26;3.47;;;2.73;;
4939;SDS011;2485;49.326;7.214;2024-01-07T09:36:53;5.57;;;3.70;;
4939;SDS011;2485;49.326;7.214;2024-01-07T09:39:19;7.77;;;3.83;;
4939;SDS011;2485;49.326;7.214;2024-01-07T09:41:46;4.90;;;2.70;;
4939;SDS011;2485;49.326;7.214;2024-01-07T09:44:12;7.67;;;3.70;;
4939;SDS011;2485;49.326;7.214;2024-01-07T09:46:39;7.07;;;4.13;;
4939;SDS011;2485;49.326;7.214;2024-01-07T09:49:06;4.77;;;3.60;;
4939;SDS011;2485;49.326;7.214;2024-01-07T09:51:35;5.87;;;3.97;;
4939;SDS011;2485;49.326;7.214;2024-01-07T09:54:02;8.93;;;4.27;;
4939;SDS011;2485;49.326;7.214;2024-01-07T09:56:32;4.37;;;3.03;;
4939;SDS011;2485;49.326;7.214;2024-01-07T09:59:00;5.10;;;3.43;;
4939;SDS011;2485;49.326;7.214;2024-01-07T10:01:27;6.73;;;4.17;;
4939;SDS011;2485;49.326;7.214;2024-01-07T10:03:54;7.13;;;4.47;;
4939;SDS011;2485;49.326;7.214;2024-01-07T10:06:22;7.63;;;4.20;;
4939;SDS011;2485;49.326;7.214;2024-01-07T10:08:49;4.73;;;3.40;;
4939;SDS011;2485;49.326;7.214;2024-01-07T10:11:16;5.70;;;3.23;;
4939;SDS011;2485;49.326;7.214;2024-01-07T10:13:44;6.80;;;3.97;;
4939;SDS011;2485;49.326;7.214;2024-01-07T10:16:12;5.83;;;4.43;;
4939;SDS011;2485;49.326;7.214;2024-01-07T10:18:39;6.73;;;4.37;;
4939;SDS011;2485;49.326;7.214;2024-01-07T10:21:06;5.00;;;3.50;;
4939;SDS011;2485;49.326;7.214;2024-01-07T10:23:33;5.50;;;3.00;;
4939;SDS011;2485;49.326;7.214;2024-01-07T10:26:00;9.07;;;4.27;;
4939;SDS011;2485;49.326;7.214;2024-01-07T10:28:27;5.13;;;3.50;;
4939;SDS011;2485;49.326;7.214;2024-01-07T10:30:54;8.30;;;4.60;;
4939;SDS011;2485;49.326;7.214;2024-01-07T10:33:20;7.70;;;4.77;;
4939;SDS011;2485;49.326;7.214;2024-01-07T10:35:50;4.57;;;2.87;;
4939;SDS011;2485;49.326;7.214;2024-01-07T10:38:17;8.70;;;4.70;;
4939;SDS011;2485;49.326;7.214;2024-01-07T10:40:43;9.17;;;5.60;;
4939;SDS011;2485;49.326;7.214;2024-01-07T10:43:14;8.13;;;4.93;;
4939;SDS011;2485;49.326;7.214;2024-01-07T10:45:41;7.37;;;4.43;;
4939;SDS011;2485;49.326;7.214;2024-01-07T10:48:08;9.03;;;5.17;;
4939;SDS011;2485;49.326;7.214;2024-01-07T10:50:36;6.93;;;4.50;;
4939;SDS011;2485;49.326;7.214;2024-01-07T10:53:04;7.00;;;5.00;;
4939;SDS011;2485;49.326;7.214;2024-01-07T10:55:33;7.90;;;5.20;;
4939;SDS011;2485;49.326;7.214;2024-01-07T10:58:01;5.90;;;3.57;;
4939;SDS011;2485;49.326;7.214;2024-01-07T11:00:30;5.70;;;4.60;;
4939;SDS011;2485;49.326;7.214;2024-01-07T11:03:00;7.00;;;4.87;;
4939;SDS011;2485;49.326;7.214;2024-01-07T11:05:31;3.50;;;2.57;;
4939;SDS011;2485;49.326;7.214;2024-01-07T11:08:01;7.00;;;4.47;;
4939;SDS011;2485;49.326;7.214;2024-01-07T11:10:31;6.00;;;4.77;;
4939;SDS011;2485;49.326;7.214;2024-01-07T11:12:59;9.43;;;4.43;;
4939;SDS011;2485;49.326;7.214;2024-01-07T11:15:51;6.00;;;4.57;;
4939;SDS011;2485;49.326;7.214;2024-01-07T11:18:19;3.17;;;2.57;;
4939;SDS011;2485;49.326;7.214;2024-01-07T11:20:45;4.40;;;3.50;;
4939;SDS011;2485;49.326;7.214;2024-01-07T11:23:28;7.00;;;4.10;;
4939;SDS011;2485;49.326;7.214;2024-01-07T11:25:56;5.97;;;3.23;;
4939;SDS011;2485;49.326;7.214;2024-01-07T11:31:05;4.63;;;3.67;;
4939;SDS011;2485;49.326;7.214;2024-01-07T11:33:34;5.93;;;4.33;;
4939;SDS011;2485;49.326;7.214;2024-01-07T11:36:04;6.07;;;3.43;;
4939;SDS011;2485;49.326;7.214;2024-01-07T11:38:31;5.53;;;3.80;;
4939;SDS011;2485;49.326;7.214;2024-01-07T11:40:58;5.83;;;3.20;;
4939;SDS011;2485;49.326;7.214;2024-01-07T11:43:25;4.97;;;4.13;;
4939;SDS011;2485;49.326;7.214;2024-01-07T11:45:52;5.77;;;3.87;;
4939;SDS011;2485;49.326;7.214;2024-01-07T11:48:21;5.07;;;3.37;;
4939;SDS011;2485;49.326;7.214;2024-01-07T11:50:47;4.47;;;3.13;;
4939;SDS011;2485;49.326;7.214;2024-01-07T11:53:14;4.27;;;3.67;;
4939;SDS011;2485;49.326;7.214;2024-01-07T11:55:40;5.27;;;3.73;;
4939;SDS011;2485;49.326;7.214;2024-01-07T11:58:07;4.53;;;3.10;;
4939;SDS011;2485;49.326;7.214;2024-01-07T12:00:34;7.10;;;4.43;;
4939;SDS011;2485;49.326;7.214;2024-01-07T12:03:00;4.27;;;3.40;;
4939;SDS011;2485;49.326;7.214;2024-01-07T12:05:29;5.13;;;4.00;;
4939;SDS011;2485;49.326;7.214;2024-01-07T12:07:55;5.80;;;3.93;;
4939;SDS011;2485;49.326;7.214;2024-01-07T12:10:22;6.07;;;4.17;;
4939;SDS011;2485;49.326;7.214;2024-01-07T12:12:49;6.17;;;4.00;;
4939;SDS011;2485;49.326;7.214;2024-01-07T12:15:16;7.73;;;4.77;;
4939;SDS011;2485;49.326;7.214;2024-01-07T12:17:47;7.30;;;3.90;;
4939;SDS011;2485;49.326;7.214;2024-01-07T12:20:21;7.10;;;5.17;;
4939;SDS011;2485;49.326;7.214;2024-01-07T12:22:48;7.90;;;5.20;;
4939;SDS011;2485;49.326;7.214;2024-01-07T12:25:20;8.50;;;3.43;;
4939;SDS011;2485;49.326;7.214;2024-01-07T12:27:47;6.90;;;4.03;;
4939;SDS011;2485;49.326;7.214;2024-01-07T12:30:17;6.33;;;3.67;;
4939;SDS011;2485;49.326;7.214;2024-01-07T12:32:44;7.17;;;4.43;;
4939;SDS011;2485;49.326;7.214;2024-01-07T12:35:11;7.00;;;4.73;;
4939;SDS011;2485;49.326;7.214;2024-01-07T12:37:37;6.57;;;4.03;;
4939;SDS011;2485;49.326;7.214;2024-01-07T12:40:06;11.70;;;5.40;;
4939;SDS011;2485;49.326;7.214;2024-01-07T12:42:34;6.97;;;4.10;;
4939;SDS011;2485;49.326;7.214;2024-01-07T12:45:00;7.27;;;4.83;;
4939;SDS011;2485;49.326;7.214;2024-01-07T12:47:28;8.20;;;5.37;;
4939;SDS011;2485;49.326;7.214;2024-01-07T12:49:54;10.23;;;6.83;;
4939;SDS011;2485;49.326;7.214;2024-01-07T12:52:22;7.77;;;5.10;;
4939;SDS011;2485;49.326;7.214;2024-01-07T12:54:48;13.40;;;7.13;;
4939;SDS011;2485;49.326;7.214;2024-01-07T12:57:16;9.90;;;5.57;;
4939;SDS011;2485;49.326;7.214;2024-01-07T12:59:43;10.97;;;7.40;;
4939;SDS011;2485;49.326;7.214;2024-01-07T13:02:09;7.27;;;4.70;;
4939;SDS011;2485;49.326;7.214;2024-01-07T13:04:36;8.37;;;4.53;;
4939;SDS011;2485;49.326;7.214;2024-01-07T13:07:02;8.50;;;4.10;;
4939;SDS011;2485;49.326;7.214;2024-01-07T13:09:29;7.33;;;5.60;;
4939;SDS011;2485;49.326;7.214;2024-01-07T13:11:55;8.17;;;5.63;;
4939;SDS011;2485;49.326;7.214;2024-01-07T13:14:24;9.00;;;5.10;;
4939;SDS011;2485;49.326;7.214;2024-01-07T13:16:50;10.43;;;6.03;;
4939;SDS011;2485;49.326;7.214;2024-01-07T13:19:17;9.57;;;5.47;;
4939;SDS011;2485;49.326;7.214;2024-01-07T13:21:43;9.40;;;5.50;;
4939;SDS011;2485;49.326;7.214;2024-01-07T13:24:10;7.90;;;5.60;;
4939;SDS011;2485;49.326;7.214;2024-01-07T13:26:37;11.20;;;5.97;;
4939;SDS011;2485;49.326;7.214;2024-01-07T13:29:03;7.17;;;4.30;;
4939;SDS011;2485;49.326;7.214;2024-01-07T13:31:31;7.90;;;4.30;;
4939;SDS011;2485;49.326;7.214;2024-01-07T13:33:58;8.43;;;4.70;;
4939;SDS011;2485;49.326;7.214;2024-01-07T13:36:25;5.90;;;3.63;;
4939;SDS011;2485;49.326;7.214;2024-01-07T13:38:51;7.07;;;5.00;;
4939;SDS011;2485;49.326;7.214;2024-01-07T13:41:18;10.20;;;6.27;;
4939;SDS011;2485;49.326;7.214;2024-01-07T13:43:44;8.53;;;4.50;;
4939;SDS011;2485;49.326;7.214;2024-01-07T13:46:11;5.67;;;3.90;;
4939;SDS011;2485;49.326;7.214;2024-01-07T13:48:38;9.10;;;4.63;;
4939;SDS011;2485;49.326;7.214;2024-01-07T13:51:06;7.90;;;4.93;;
4939;SDS011;2485;49.326;7.214;2024-01-07T13:53:33;8.80;;;4.70;;
4939;SDS011;2485;49.326;7.214;2024-01-07T13:56:00;9.43;;;4.87;;
4939;SDS011;2485;49.326;7.214;2024-01-07T13:58:26;7.73;;;4.93;;
4939;SDS011;2485;49.326;7.214;2024-01-07T14:00:53;10.30;;;5.57;;
4939;SDS011;2485;49.326;7.214;2024-01-07T14:03:19;9.57;;;4.57;;
4939;SDS011;2485;49.326;7.214;2024-01-07T14:05:47;11.50;;;5.50;;
4939;SDS011;2485;49.326;7.214;2024-01-07T14:08:14;9.83;;;5.77;;
4939;SDS011;2485;49.326;7.214;2024-01-07T14:10:40;9.40;;;4.30;;
4939;SDS011;2485;49.326;7.214;2024-01-07T14:13:07;8.93;;;5.23;;
4939;SDS011;2485;49.326;7.214;2024-01-07T14:15:34;12.50;;;7.27;;
4939;SDS011;2485;49.326;7.214;2024-01-07T14:18:00;10.50;;;6.70;;
4939;SDS011;2485;49.326;7.214;2024-01-07T14:20:27;12.50;;;6.33;;
4939;SDS011;2485;49.326;7.214;2024-01-07T14:22:56;8.60;;;4.80;;
4939;SDS011;2485;49.326;7.214;2024-01-07T14:25:22;7.90;;;4.73;;
4939;SDS011;2485;49.326;7.214;2024-01-07T14:27:49;7.00;;;4.73;;
4939;SDS011;2485;49.326;7.214;2024-01-07T14:30:14;6.77;;;4.40;;
4939;SDS011;2485;49.326;7.214;2024-01-07T14:32:41;8.80;;;5.90;;
4939;SDS011;2485;49.326;7.214;2024-01-07T14:35:09;10.63;;;4.40;;
4939;SDS011;2485;49.326;7.214;2024-01-07T14:37:35;12.90;;;5.37;;
4939;SDS011;2485;49.326;7.214;2024-01-07T14:40:04;7.33;;;3.70;;
4939;SDS011;2485;49.326;7.214;2024-01-07T14:42:31;6.53;;;4.30;;
4939;SDS011;2485;49.326;7.214;2024-01-07T14:44:57;10.53;;;6.37;;
4939;SDS011;2485;49.326;7.214;2024-01-07T14:47:24;5.80;;;4.20;;
4939;SDS011;2485;49.326;7.214;2024-01-07T14:49:50;4.37;;;3.30;;
4939;SDS011;2485;49.326;7.214;2024-01-07T14:52:17;8.57;;;5.10;;
4939;SDS011;2485;49.326;7.214;2024-01-07T14:54:43;7.50;;;4.47;;
4939;SDS011;2485;49.326;7.214;2024-01-07T14:57:11;7.30;;;4.60;;
4939;SDS011;2485;49.326;7.214;2024-01-07T14:59:37;7.90;;;4.90;;
4939;SDS011;2485;49.326;7.214;2024-01-07T15:02:04;9.83;;;5.60;;
4939;SDS011;2485;49.326;7.214;2024-01-07T15:04:31;7.50;;;4.20;;
4939;SDS011;2485;49.326;7.214;2024-01-07T15:06:58;8.43;;;5.43;;
4939;SDS011;2485;49.326;7.214;2024-01-07T15:09:24;11.17;;;4.07;;
4939;SDS011;2485;49.326;7.214;2024-01-07T15:11:51;9.47;;;6.07;;
4939;SDS011;2485;49.326;7.214;2024-01-07T15:14:19;8.90;;;4.93;;